»·PEaware :: N57364 KSBP-KSMX

N57364 :: KSBP-KSMX

FLIGHT INFORMATION

Flight Status: Arrived
Operator: Privately registered:
United States
More flights under this callsign
Pilot: Ed S. (33230)
Aircraft: Unknown
(P28S)
More flights by this aircraft type
Origin: KSBP San Luis Co Regl
United States
Destination: KSMX Santa Maria Pub/Capt Hancock
United States
More flights between these airports :: More routes between these airports
Route:
File this flight plan on PilotEdge
Remarks:
Altitude:
(Current/Filed)
3,500ft
Speed:
(Current/Filed)
130kts
Departed: 14-Jan-21 09:42 AM
Arrived: 14-Jan-21 09:57 AM
Distance/Time
Traveled:
22nm/0:15
Distance/Time
To Go:
Arrived

Flight Plot

Page will automatically refresh every two minutes.


Map Options




Map Legend


Flown Route
Filed Route
Departure Airport
Arrival Airport
Navaid (VOR, NDB)
Fix

Horizontal Profiles

Position Reports

Time Latitude Longitude Heading Altitude Ground
Speed
14-Jan-21 09:14 35.238245 -120.639989 308 215ft 0kts
14-Jan-21 09:15 35.238245 -120.639989 308 215ft 0kts
14-Jan-21 09:16 35.238245 -120.639989 308 215ft 0kts
14-Jan-21 09:17 35.238245 -120.639989 308 215ft 0kts
14-Jan-21 09:18 35.238245 -120.639989 308 215ft 0kts
14-Jan-21 09:19 35.238245 -120.639989 308 215ft 0kts
14-Jan-21 09:24 35.238245 -120.639989 308 215ft 0kts
14-Jan-21 09:25 35.238245 -120.639989 308 215ft 0kts
14-Jan-21 09:26 35.238245 -120.639989 308 215ft 0kts
14-Jan-21 09:27 35.238245 -120.639989 308 215ft 0kts
14-Jan-21 09:28 35.238245 -120.639989 308 215ft 0kts
14-Jan-21 09:29 35.238245 -120.639989 308 215ft 0kts
14-Jan-21 09:30 35.238245 -120.639989 308 215ft 0kts
14-Jan-21 09:31 35.238245 -120.639989 308 215ft 0kts
14-Jan-21 09:32 35.238245 -120.639989 308 215ft 0kts
14-Jan-21 09:33 35.238245 -120.639989 308 215ft 0kts
14-Jan-21 09:34 35.238142 -120.640145 156 215ft 7kts
14-Jan-21 09:35 35.237122 -120.638735 122 215ft 9kts
14-Jan-21 09:36 35.235272 -120.635478 125 215ft 12kts
14-Jan-21 09:37 35.233309 -120.632329 183 215ft 0kts
14-Jan-21 09:38 35.233308 -120.632329 183 215ft 0kts
14-Jan-21 09:39 35.233309 -120.632329 183 215ft 0kts
14-Jan-21 09:40 35.233309 -120.632328 183 215ft 0kts
14-Jan-21 09:41 35.236312 -120.639233 307 338ft 76kts
14-Jan-21 09:42 35.241219 -120.665619 224 1176ft 119kts
14-Jan-21 09:43 35.211824 -120.660652 126 1516ft 128kts
14-Jan-21 09:44 35.186356 -120.627636 137 1791ft 131kts
14-Jan-21 09:45 35.159103 -120.598962 135 2281ft 129kts
14-Jan-21 09:46 35.127286 -120.578133 152 2785ft 130kts
14-Jan-21 09:47 35.095113 -120.557922 153 3292ft 129kts
14-Jan-21 09:48 35.060936 -120.539213 158 3500ft 142kts
14-Jan-21 09:49 35.024936 -120.519090 156 3495ft 142kts
14-Jan-21 09:50 34.988191 -120.496815 156 2746ft 149kts
14-Jan-21 09:51 34.951288 -120.474426 156 1455ft 149kts
14-Jan-21 09:52 34.920767 -120.452276 131 1218ft 117kts
14-Jan-21 09:53 34.901540 -120.422599 130 983ft 105kts
14-Jan-21 09:54 34.879140 -120.413785 214 890ft 89kts
14-Jan-21 09:55 34.887100 -120.439133 311 422ft 86kts
14-Jan-21 09:56 34.897701 -120.450279 0 264ft 12kts
14-Jan-21 09:57 34.898876 -120.449406 44 264ft 13kts
14-Jan-21 09:58 34.899181 -120.449122 50 264ft 4kts
14-Jan-21 09:59 34.899143 -120.448981 215 264ft 0kts
14-Jan-21 10:00 34.899143 -120.448981 215 264ft 0kts
14-Jan-21 10:01 34.899143 -120.448981 215 264ft 0kts
14-Jan-21 10:02 34.899143 -120.448981 215 264ft 0kts
14-Jan-21 10:03 34.899143 -120.448981 215 264ft 0kts
14-Jan-21 10:04 34.899143 -120.448981 215 264ft 0kts
14-Jan-21 10:05 34.899143 -120.448981 215 264ft 0kts
14-Jan-21 10:06 34.899143 -120.448981 215 264ft 0kts
14-Jan-21 10:07 34.899143 -120.448981 215 264ft 0kts
14-Jan-21 10:08 34.899143 -120.448981 215 264ft 0kts
14-Jan-21 10:09 34.899143 -120.448981 215 264ft 0kts
14-Jan-21 10:10 34.899143 -120.448981 215 264ft 0kts

Navigation Log

Ident Type
Flight plan parsing failed, navigation log unavailable